WetterOnline ( http://www.wetteronline.de )

Wetter aktuell Tübingen

Aktuelles Wetter: Freudenstadt (801m)

6-stündlich | Neueste Meldungen
Ortszeit Temperatur Wetter
Do, 23.02. 7:00 3.6° C wolkig
Do, 23.02. 1:00 3.9° C bedeckt
Mi, 22.02. 19:00 4.6° C Sprühregen
Mi, 22.02. 13:00 5.3° C bedeckt
Ortszeit Temperatur Wetter
Do, 23.02. 8:00 4.0° C wolkig
Do, 23.02. 7:30 3.8° C wolkig
Do, 23.02. 7:00 3.6° C wolkig
Do, 23.02. 6:30 4.0° C bewölkt
Do, 23.02. 6:00 4.1° C bewölkt
Do, 23.02. 5:30 4.2° C bewölkt
Ortszeit Relative Feuchte Sichtweite
Do, 23.02. 7:00 96% 8 km
Do, 23.02. 1:00 95% 20 km
Mi, 22.02. 19:00 95% 19 km
Mi, 22.02. 13:00 86% 70 km
Ortszeit Relative Feuchte Sichtweite
Do, 23.02. 8:00 95% 9 km
Do, 23.02. 7:30 97% 7 km
Do, 23.02. 7:00 96% 8 km
Do, 23.02. 6:30 91% 16 km
Do, 23.02. 6:00 91% 19 km
Do, 23.02. 5:30 91% 23 km
Ortszeit Niederschlagsmenge Niederschlagsart
Do, 23.02. 7:00 0.1 l/m2 in 12 Std. -
Do, 23.02. 1:00 0.1 l/m2 in 6 Std. Regen
Mi, 22.02. 19:00 1 l/m2 in 12 Std. Regen
Mi, 22.02. 13:00 1 l/m2 in 6 Std. Regen
Ortszeit Niederschlagsmenge Niederschlagsart
Do, 23.02. 8:00 0,0 l/m2 in 1 Std. -
Do, 23.02. 7:30 keine Meldung -
Do, 23.02. 7:00 0,0 l/m2 in 1 Std. -
Do, 23.02. 6:30 keine Meldung -
Do, 23.02. 6:00 0,0 l/m2 in 1 Std. -
Do, 23.02. 5:30 keine Meldung -
Ortszeit Stärke Spitze Richtung
km/h Bft. km/h Grad Sektor
Do, 23.02. 7:00 22 4 46 - -
Do, 23.02. 1:00 14 3 47 - -
Mi, 22.02. 19:00 26 4 59 - -
Mi, 22.02. 13:00 31 5 61 - -
Ortszeit Stärke Spitze Richtung
km/h Bft. km/h Grad Sektor
Do, 23.02. 8:00 19 3 37 - -
Do, 23.02. 7:30 22 4 36 - -
Do, 23.02. 7:00 22 4 39 - -
Do, 23.02. 6:30 22 4 40 - -
Do, 23.02. 6:00 20 4 44 - -
Do, 23.02. 5:30 22 4 47 - -
Ortszeit Untergrenze Bedeckung Gattung
total tief tief mittel hoch
Do, 23.02. 7:00 9000 m 8/8 0/8 - - -
Do, 23.02. 1:00 150 m 8/8 8/8 - - -
Mi, 22.02. 19:00 150 m 8/8 8/8 - - -
Mi, 22.02. 13:00 360 m 8/8 8/8 - - -
Ortszeit Bedeckungsgrad in Achtel und Wolkenuntergrenze
Do, 23.02. 8:00 7(9000m)
Do, 23.02. 7:30 1(120m) 4(9000m) 8(10500m)
Do, 23.02. 7:00 8(9000m) 8(10500m)
Do, 23.02. 6:30 5(300m) 8(9000m) 8(10500m)
Do, 23.02. 6:00 5(270m) 7(390m) 8(9000m)
Do, 23.02. 5:30 5(270m) 7(420m) 7(9000m)
Ortszeit Stationsdruck (hPa) Tendenz (hPa in 3 Std.)
Do, 23.02. 7:00 917 - 1,6
Do, 23.02. 1:00 920 - 0,6
Mi, 22.02. 19:00 921 0,0
Mi, 22.02. 13:00 923 + 0,2
Ortszeit Stationsdruck (hPa) Tendenz (hPa in 3 Std.)
Do, 23.02. 8:00 917 - 1,5
Do, 23.02. 7:30 917 - 1,3
Do, 23.02. 7:00 917 - 1,6
Do, 23.02. 6:30 917 - 1,8
Do, 23.02. 6:00 918 - 1,9
Do, 23.02. 5:30 918 - 2,1
Ortszeit Schneehöhe (cm)
Do, 23.02. 7:00 -
Do, 23.02. 1:00 -
Mi, 22.02. 19:00 -
Mi, 22.02. 13:00 -
Ortszeit Schneehöhe (cm)
Do, 23.02. 8:00 -
Do, 23.02. 7:30 -
Do, 23.02. 7:00 -
Do, 23.02. 6:30 -
Do, 23.02. 6:00 -
Do, 23.02. 5:30 -
Link zu dieser Seite / Seite empfehlen

Das Wetter in ...